createdAt,value
2019-04-04T00:00:06.775Z,8.56
2019-04-04T00:01:06.912Z,8.56
2019-04-04T00:02:06.907Z,8.56
2019-04-04T00:03:06.919Z,8.56
2019-04-04T00:04:06.916Z,8.50
2019-04-04T00:05:06.986Z,8.50
2019-04-04T00:06:06.919Z,8.50
2019-04-04T00:07:06.902Z,8.50
2019-04-04T00:08:06.929Z,8.44
2019-04-04T00:09:06.772Z,8.44
2019-04-04T00:10:04.962Z,8.44
2019-04-04T00:11:06.045Z,8.38
2019-04-04T00:12:06.037Z,8.38
2019-04-04T00:13:06.714Z,8.38
2019-04-04T00:14:06.946Z,8.38
2019-04-04T00:15:04.957Z,8.31
2019-04-04T00:16:06.945Z,8.31
2019-04-04T00:17:06.918Z,8.31
2019-04-04T00:18:06.913Z,8.25
2019-04-04T00:19:06.920Z,8.25
2019-04-04T00:20:06.934Z,8.25
2019-04-04T00:21:06.794Z,8.25
2019-04-04T00:22:06.941Z,8.19
2019-04-04T00:23:06.864Z,8.19
2019-04-04T00:24:07.053Z,8.12
2019-04-04T00:25:09.578Z,8.12
2019-04-04T00:26:06.987Z,8.12
2019-04-04T00:27:06.946Z,8.12
2019-04-04T00:28:06.982Z,8.06
2019-04-04T00:29:06.785Z,8.06
2019-04-04T00:30:06.943Z,8.06
2019-04-04T00:31:06.954Z,8.00
2019-04-04T00:32:06.674Z,8.00
2019-04-04T00:33:06.940Z,8.00
2019-04-04T00:34:06.926Z,7.94
2019-04-04T00:35:06.952Z,7.94
2019-04-04T00:36:06.954Z,7.94
2019-04-04T00:37:06.944Z,7.88
2019-04-04T00:38:06.944Z,7.88
2019-04-04T00:39:09.045Z,7.88
2019-04-04T00:40:06.713Z,7.88
2019-04-04T00:41:05.103Z,7.81
2019-04-04T00:42:06.690Z,7.81
2019-04-04T00:43:06.931Z,7.75
2019-04-04T00:44:06.778Z,7.75
2019-04-04T00:45:06.935Z,7.75
2019-04-04T00:46:06.806Z,7.75
2019-04-04T00:47:06.963Z,7.69
2019-04-04T00:48:06.829Z,7.69
2019-04-04T00:49:06.960Z,7.62
2019-04-04T00:50:06.870Z,7.62
2019-04-04T00:51:07.910Z,7.62
2019-04-04T00:52:09.911Z,7.62
2019-04-04T00:53:05.046Z,7.56
2019-04-04T00:54:06.712Z,7.56
2019-04-04T00:55:06.956Z,7.56
2019-04-04T00:56:06.824Z,7.56
2019-04-04T00:57:06.942Z,7.50
2019-04-04T00:58:06.967Z,7.50
2019-04-04T00:59:06.948Z,7.50
2019-04-04T01:00:06.815Z,7.50
2019-04-04T01:01:05.055Z,7.44
2019-04-04T01:02:06.787Z,7.44
2019-04-04T01:03:06.970Z,7.38
2019-04-04T01:04:05.038Z,7.38
2019-04-04T01:05:06.999Z,7.38
2019-04-04T01:06:06.795Z,7.38
2019-04-04T01:07:05.620Z,7.31
2019-04-04T01:08:06.863Z,7.31
2019-04-04T01:09:05.263Z,7.31
2019-04-04T01:10:06.999Z,7.25
2019-04-04T01:11:06.841Z,7.25
2019-04-04T01:12:06.975Z,7.25
2019-04-04T01:13:06.826Z,7.19
2019-04-04T01:14:06.984Z,7.19
2019-04-04T01:15:06.963Z,7.19
2019-04-04T01:16:06.831Z,7.12
2019-04-04T01:17:06.979Z,7.12
2019-04-04T01:18:06.882Z,7.12
2019-04-04T01:19:05.103Z,7.12
2019-04-04T01:20:06.993Z,7.06
2019-04-04T01:21:06.966Z,7.06
2019-04-04T01:22:07.012Z,7.06
2019-04-04T01:23:07.010Z,7.06
2019-04-04T01:24:06.836Z,7.00
2019-04-04T01:25:06.986Z,7.00
2019-04-04T01:26:06.833Z,7.00
2019-04-04T01:27:07.049Z,7.00
2019-04-04T01:28:08.101Z,6.94
2019-04-04T01:29:05.807Z,6.94
2019-04-04T01:30:06.877Z,6.88
2019-04-04T01:31:06.992Z,6.88
2019-04-04T01:32:06.850Z,6.88
2019-04-04T01:33:05.067Z,6.88
2019-04-04T01:34:05.109Z,6.81
2019-04-04T01:35:05.229Z,6.81
2019-04-04T01:36:07.016Z,6.81
2019-04-04T01:37:06.855Z,6.81
2019-04-04T01:38:07.045Z,6.81
2019-04-04T01:39:06.862Z,6.75
2019-04-04T01:40:05.140Z,6.75
2019-04-04T01:41:07.025Z,6.75
2019-04-04T01:42:07.131Z,6.75
2019-04-04T01:43:05.114Z,6.69
2019-04-04T01:44:05.566Z,6.69
2019-04-04T01:45:05.127Z,6.69
2019-04-04T01:46:06.778Z,6.69
2019-04-04T01:47:07.016Z,6.62
2019-04-04T01:48:06.778Z,6.62
2019-04-04T01:49:07.012Z,6.62
2019-04-04T01:50:07.025Z,6.62
2019-04-04T01:51:07.867Z,6.56
2019-04-04T01:52:07.014Z,6.56
2019-04-04T01:53:05.044Z,6.56
2019-04-04T01:54:06.854Z,6.56
2019-04-04T01:55:07.037Z,6.56
2019-04-04T01:56:06.654Z,6.50
2019-04-04T01:57:08.016Z,6.50
2019-04-04T01:58:07.892Z,6.50
2019-04-04T01:59:07.041Z,6.50
2019-04-04T02:00:06.785Z,6.44
2019-04-04T02:01:07.042Z,6.44
2019-04-04T02:02:06.798Z,6.44
2019-04-04T02:03:07.008Z,6.44
2019-04-04T02:04:07.031Z,6.38
2019-04-04T02:05:06.866Z,6.44
2019-04-04T02:06:07.028Z,6.38
2019-04-04T02:07:07.016Z,6.38
2019-04-04T02:08:07.024Z,6.31
2019-04-04T02:09:07.028Z,6.31
2019-04-04T02:10:07.015Z,6.31
2019-04-04T02:11:07.032Z,6.25
2019-04-04T02:12:07.849Z,6.25
2019-04-04T02:13:09.454Z,6.19
2019-04-04T02:14:07.014Z,6.19
2019-04-04T02:15:07.093Z,6.19
2019-04-04T02:16:06.785Z,6.12
2019-04-04T02:17:07.055Z,6.12
2019-04-04T02:18:07.042Z,6.12
2019-04-04T02:19:07.037Z,6.12
2019-04-04T02:20:06.900Z,6.12
2019-04-04T02:21:07.033Z,6.12
2019-04-04T02:22:07.042Z,6.06
2019-04-04T02:23:07.126Z,6.06
2019-04-04T02:24:07.144Z,6.06
2019-04-04T02:25:05.222Z,6.06
2019-04-04T02:26:06.817Z,6.00
2019-04-04T02:27:07.030Z,6.00
2019-04-04T02:28:08.855Z,6.00
2019-04-04T02:29:07.051Z,6.00
2019-04-04T02:30:05.206Z,6.00
2019-04-04T02:31:07.067Z,6.00
2019-04-04T02:32:06.809Z,6.00
2019-04-04T02:33:07.105Z,6.00
2019-04-04T02:34:06.804Z,6.00
2019-04-04T02:35:09.977Z,6.00
2019-04-04T02:36:06.921Z,5.94
2019-04-04T02:37:07.099Z,5.94
2019-04-04T02:38:07.111Z,5.94
2019-04-04T02:39:05.043Z,5.88
2019-04-04T02:40:05.946Z,5.88
2019-04-04T02:41:05.120Z,5.88
2019-04-04T02:42:07.067Z,5.88
2019-04-04T02:43:05.126Z,5.88
2019-04-04T02:44:07.072Z,5.88
2019-04-04T02:45:06.334Z,5.88
2019-04-04T02:46:05.303Z,5.88
2019-04-04T02:47:07.082Z,5.88
2019-04-04T02:48:05.289Z,5.81
2019-04-04T02:49:07.096Z,5.81
2019-04-04T02:50:07.098Z,5.81
2019-04-04T02:51:07.901Z,5.81
2019-04-04T02:52:07.082Z,5.81
2019-04-04T02:53:05.127Z,5.81
2019-04-04T02:54:07.069Z,5.81
2019-04-04T02:55:04.963Z,5.81
2019-04-04T02:56:07.089Z,5.75
2019-04-04T02:57:09.143Z,5.75
2019-04-04T02:58:07.083Z,5.75
2019-04-04T02:59:05.122Z,5.75
2019-04-04T03:00:06.867Z,5.75
2019-04-04T03:01:07.109Z,5.75
2019-04-04T03:02:07.058Z,5.75
2019-04-04T03:03:09.096Z,5.69
2019-04-04T03:04:04.967Z,5.69
2019-04-04T03:05:06.821Z,5.69
2019-04-04T03:06:07.078Z,5.69
2019-04-04T03:07:05.283Z,5.69
2019-04-04T03:08:06.889Z,5.69
2019-04-04T03:09:09.926Z,5.69
2019-04-04T03:10:07.105Z,5.69
2019-04-04T03:11:06.937Z,5.69
2019-04-04T03:12:05.107Z,5.69
2019-04-04T03:13:07.070Z,5.69
2019-04-04T03:14:05.135Z,5.62
2019-04-04T03:15:06.272Z,5.62
2019-04-04T03:16:06.878Z,5.62
2019-04-04T03:17:07.116Z,5.62
2019-04-04T03:18:07.082Z,5.56
2019-04-04T03:19:09.709Z,5.56
2019-04-04T03:20:05.054Z,5.56
2019-04-04T03:21:05.282Z,5.56
2019-04-04T03:22:04.955Z,5.56
2019-04-04T03:23:05.214Z,5.56
2019-04-04T03:24:07.253Z,5.56
2019-04-04T03:25:07.117Z,5.56
2019-04-04T03:26:07.078Z,5.50
2019-04-04T03:27:07.099Z,5.50
2019-04-04T03:28:06.857Z,5.50
2019-04-04T03:29:05.815Z,5.50
2019-04-04T03:30:12.882Z,5.50
2019-04-04T03:31:05.228Z,5.50
2019-04-04T03:32:13.086Z,5.44
2019-04-04T03:33:07.089Z,5.44
2019-04-04T03:34:10.806Z,5.44
2019-04-04T03:35:05.046Z,5.44
2019-04-04T03:36:05.189Z,5.44
2019-04-04T03:37:07.877Z,5.44
2019-04-04T03:38:05.295Z,5.44
2019-04-04T03:39:05.048Z,5.44
2019-04-04T03:40:06.966Z,5.38
2019-04-04T03:41:04.969Z,5.38
2019-04-04T03:42:07.982Z,5.38
2019-04-04T03:43:07.099Z,5.38
2019-04-04T03:44:06.879Z,5.38
2019-04-04T03:45:05.140Z,5.38
2019-04-04T03:46:05.128Z,5.38
2019-04-04T03:47:05.136Z,5.31
2019-04-04T03:48:05.203Z,5.31
2019-04-04T03:49:07.111Z,5.31
2019-04-04T03:50:07.128Z,5.31
2019-04-04T03:51:06.988Z,5.25
2019-04-04T03:52:05.264Z,5.25
2019-04-04T03:53:06.961Z,5.25
2019-04-04T03:54:05.134Z,5.25
2019-04-04T03:55:05.123Z,5.25
2019-04-04T03:56:05.210Z,5.25
2019-04-04T03:57:10.880Z,5.19
2019-04-04T03:58:06.869Z,5.19
2019-04-04T03:59:05.135Z,5.19
2019-04-04T04:00:07.444Z,5.12
2019-04-04T04:01:05.210Z,5.12
2019-04-04T04:02:06.953Z,5.12
2019-04-04T04:03:04.976Z,5.12
2019-04-04T04:04:05.042Z,5.12
2019-04-04T04:05:05.118Z,5.12
2019-04-04T04:06:08.155Z,5.12
2019-04-04T04:07:05.131Z,5.12
2019-04-04T04:08:07.157Z,5.12
2019-04-04T04:09:05.269Z,5.12
2019-04-04T04:10:05.289Z,5.06
2019-04-04T04:11:07.187Z,5.06
2019-04-04T04:12:10.005Z,5.06
2019-04-04T04:13:06.952Z,5.06
2019-04-04T04:14:05.046Z,5.06
2019-04-04T04:15:06.939Z,5.00
2019-04-04T04:16:05.048Z,5.00
2019-04-04T04:17:05.044Z,5.00
2019-04-04T04:18:05.115Z,5.00
2019-04-04T04:19:05.353Z,5.00
2019-04-04T04:20:07.158Z,5.00
2019-04-04T04:21:10.763Z,5.00
2019-04-04T04:22:05.363Z,5.00
2019-04-04T04:23:05.135Z,4.94
2019-04-04T04:24:05.118Z,4.94
2019-04-04T04:25:07.152Z,4.94
2019-04-04T04:26:09.298Z,4.94
2019-04-04T04:27:05.395Z,4.94
2019-04-04T04:28:07.159Z,4.94
2019-04-04T04:29:06.989Z,4.88
2019-04-04T04:30:07.114Z,4.88
2019-04-04T04:31:07.163Z,4.88
2019-04-04T04:32:06.955Z,4.88
2019-04-04T04:33:05.375Z,4.88
2019-04-04T04:34:07.184Z,4.88
2019-04-04T04:35:08.465Z,4.88
2019-04-04T04:36:07.851Z,4.88
2019-04-04T04:37:05.365Z,4.88
2019-04-04T04:38:05.125Z,4.88
2019-04-04T04:39:07.023Z,4.88
2019-04-04T04:40:05.026Z,5.06
2019-04-04T04:41:05.038Z,5.31
2019-04-04T04:42:05.282Z,5.50
2019-04-04T04:43:05.202Z,5.44
2019-04-04T04:44:07.017Z,5.38
2019-04-04T04:45:10.832Z,5.31
2019-04-04T04:46:07.006Z,5.25
2019-04-04T04:47:05.045Z,5.25
2019-04-04T04:48:07.188Z,5.19
2019-04-04T04:49:07.020Z,5.19
2019-04-04T04:50:09.468Z,5.19
2019-04-04T04:51:05.292Z,5.12
2019-04-04T04:52:05.285Z,5.19
2019-04-04T04:53:07.175Z,5.44
2019-04-04T04:54:05.417Z,5.44
2019-04-04T04:55:04.979Z,5.44
2019-04-04T04:56:07.033Z,5.56
2019-04-04T04:57:05.155Z,5.50
2019-04-04T04:58:05.131Z,5.50
2019-04-04T04:59:05.201Z,5.50
2019-04-04T05:00:05.051Z,5.44
2019-04-04T05:01:05.225Z,5.44
2019-04-04T05:02:05.122Z,5.75
2019-04-04T05:03:05.217Z,6.00
2019-04-04T05:04:07.194Z,5.94
2019-04-04T05:05:05.379Z,5.88
2019-04-04T05:06:05.191Z,5.81
2019-04-04T05:07:07.338Z,5.75
2019-04-04T05:08:05.201Z,5.69
2019-04-04T05:09:05.251Z,5.69
2019-04-04T05:10:07.182Z,5.62
2019-04-04T05:11:05.291Z,5.56
2019-04-04T05:12:07.040Z,5.56
2019-04-04T05:13:05.130Z,5.50
2019-04-04T05:14:05.046Z,5.75
2019-04-04T05:15:07.216Z,5.75
2019-04-04T05:16:07.442Z,5.69
2019-04-04T05:17:05.377Z,5.62
2019-04-04T05:18:05.030Z,5.62
2019-04-04T05:19:05.131Z,5.62
2019-04-04T05:20:05.042Z,5.69
2019-04-04T05:21:05.206Z,5.69
2019-04-04T05:22:09.148Z,5.88
2019-04-04T05:23:05.197Z,6.12
2019-04-04T05:24:07.060Z,6.06
2019-04-04T05:25:08.189Z,6.06
2019-04-04T05:26:05.271Z,5.94
2019-04-04T05:27:05.986Z,5.88
2019-04-04T05:28:10.344Z,5.88
2019-04-04T05:29:07.235Z,5.75
2019-04-04T05:30:08.112Z,5.75
2019-04-04T05:31:07.209Z,5.81
2019-04-04T05:32:05.208Z,5.88
2019-04-04T05:33:05.365Z,5.94
2019-04-04T05:34:07.197Z,6.06
2019-04-04T05:35:07.189Z,6.00
2019-04-04T05:36:05.907Z,5.94
2019-04-04T05:37:07.901Z,5.88
2019-04-04T05:38:07.586Z,5.88
2019-04-04T05:39:05.354Z,5.81
2019-04-04T05:40:05.033Z,5.81
2019-04-04T05:41:07.251Z,5.75
2019-04-04T05:42:05.126Z,5.88
2019-04-04T05:43:05.215Z,6.00
2019-04-04T05:44:08.872Z,6.19
2019-04-04T05:45:05.434Z,6.38
2019-04-04T05:46:05.025Z,6.50
2019-04-04T05:47:05.054Z,6.69
2019-04-04T05:48:05.205Z,6.62
2019-04-04T05:49:07.669Z,6.56
2019-04-04T05:50:07.270Z,6.62
2019-04-04T05:51:05.046Z,6.81
2019-04-04T05:52:05.124Z,7.06
2019-04-04T05:53:05.095Z,6.94
2019-04-04T05:54:07.467Z,6.81
2019-04-04T05:55:05.450Z,6.75
2019-04-04T05:56:06.388Z,6.62
2019-04-04T05:57:05.405Z,6.56
2019-04-04T05:58:07.047Z,6.69
2019-04-04T05:59:04.972Z,6.75
2019-04-04T06:00:05.190Z,6.88
2019-04-04T06:01:05.456Z,7.19
2019-04-04T06:02:07.236Z,7.19
2019-04-04T06:03:05.216Z,7.19
2019-04-04T06:04:05.308Z,7.25
2019-04-04T06:05:07.241Z,7.25
2019-04-04T06:06:09.035Z,7.25
2019-04-04T06:07:05.220Z,7.44
2019-04-04T06:08:07.688Z,7.50
2019-04-04T06:09:07.246Z,7.44
2019-04-04T06:10:07.029Z,7.38
2019-04-04T06:11:05.427Z,7.31
2019-04-04T06:12:07.236Z,7.19
2019-04-04T06:13:05.445Z,7.12
2019-04-04T06:14:04.970Z,7.06
2019-04-04T06:15:05.057Z,7.00
2019-04-04T06:16:05.077Z,6.94
2019-04-04T06:17:07.847Z,6.94
2019-04-04T06:18:05.057Z,6.88
2019-04-04T06:19:05.228Z,6.88
2019-04-04T06:20:05.118Z,7.00
2019-04-04T06:21:07.103Z,6.94
2019-04-04T06:22:07.007Z,6.88
2019-04-04T06:23:05.118Z,6.88
2019-04-04T06:24:07.013Z,6.88
2019-04-04T06:25:05.049Z,6.88
2019-04-04T06:26:07.375Z,6.88
2019-04-04T06:27:05.113Z,6.88
2019-04-04T06:28:05.343Z,6.88
2019-04-04T06:29:07.384Z,6.88
2019-04-04T06:30:07.291Z,6.88
2019-04-04T06:31:07.019Z,6.88
2019-04-04T06:32:05.200Z,6.88
2019-04-04T06:33:05.306Z,6.88
2019-04-04T06:34:05.885Z,6.94
2019-04-04T06:35:05.199Z,6.94
2019-04-04T06:36:05.280Z,6.94
2019-04-04T06:37:07.241Z,6.94
2019-04-04T06:38:05.186Z,6.94
2019-04-04T06:39:05.444Z,6.94
2019-04-04T06:40:05.133Z,6.94
2019-04-04T06:41:05.264Z,6.94
2019-04-04T06:42:05.212Z,7.00
2019-04-04T06:43:10.212Z,7.00
2019-04-04T06:44:05.123Z,7.00
2019-04-04T06:45:07.006Z,7.00
2019-04-04T06:46:05.295Z,7.00
2019-04-04T06:47:07.278Z,7.00
2019-04-04T06:48:07.027Z,7.06
2019-04-04T06:49:05.209Z,7.06
2019-04-04T06:50:07.960Z,7.06
2019-04-04T06:51:07.254Z,7.06
2019-04-04T06:52:05.303Z,7.06
2019-04-04T06:53:05.182Z,7.06
2019-04-04T06:54:07.080Z,7.06
2019-04-04T06:55:05.355Z,7.06
2019-04-04T06:56:05.447Z,7.12
2019-04-04T06:57:07.201Z,7.12
2019-04-04T06:58:08.176Z,7.12
2019-04-04T06:59:07.292Z,7.12
2019-04-04T07:00:05.475Z,7.31
2019-04-04T07:01:05.205Z,7.56
2019-04-04T07:02:05.436Z,7.56
2019-04-04T07:03:05.211Z,7.62
2019-04-04T07:04:05.349Z,7.62
2019-04-04T07:05:07.149Z,7.56
2019-04-04T07:06:05.438Z,7.50
2019-04-04T07:07:07.317Z,7.50
2019-04-04T07:08:07.027Z,7.50
2019-04-04T07:09:07.278Z,7.44
2019-04-04T07:10:05.444Z,7.44
2019-04-04T07:11:20.516Z,7.44
2019-04-04T07:12:07.362Z,7.44
2019-04-04T07:13:20.785Z,7.44
2019-04-04T07:14:07.424Z,7.44
2019-04-04T07:15:10.992Z,7.38
2019-04-04T07:16:08.075Z,7.44
2019-04-04T07:17:08.648Z,7.44
2019-04-04T07:18:07.321Z,7.44
2019-04-04T07:19:07.810Z,7.44
2019-04-04T07:20:05.517Z,7.44
2019-04-04T07:21:07.279Z,7.44
2019-04-04T07:22:07.037Z,7.44
2019-04-04T07:23:05.258Z,7.44
2019-04-04T07:24:07.285Z,7.44
2019-04-04T07:25:06.473Z,7.38
2019-04-04T07:26:05.454Z,7.38
2019-04-04T07:27:05.519Z,7.44
2019-04-04T07:28:05.049Z,7.44
2019-04-04T07:29:05.050Z,7.44
2019-04-04T07:30:05.458Z,7.44
2019-04-04T07:31:05.439Z,7.44
2019-04-04T07:32:09.327Z,7.44
2019-04-04T07:33:05.381Z,7.44
2019-04-04T07:34:05.049Z,7.44
2019-04-04T07:35:05.034Z,7.44
2019-04-04T07:36:05.050Z,7.62
2019-04-04T07:37:05.519Z,7.62
2019-04-04T07:38:05.104Z,7.62
2019-04-04T07:39:05.259Z,7.62
2019-04-04T07:40:07.161Z,7.56
2019-04-04T07:41:06.044Z,7.56
2019-04-04T07:42:05.203Z,7.62
2019-04-04T07:43:08.313Z,7.62
2019-04-04T07:44:07.306Z,7.62
2019-04-04T07:45:05.240Z,7.62
2019-04-04T07:47:05.368Z,7.56
2019-04-04T07:48:05.486Z,7.56
2019-04-04T07:49:05.510Z,7.56
2019-04-04T07:50:05.203Z,7.56
2019-04-04T07:51:07.121Z,7.56
2019-04-04T07:52:05.219Z,7.56
2019-04-04T07:53:05.393Z,7.56
2019-04-04T07:54:07.237Z,7.56
2019-04-04T07:55:05.106Z,7.56
2019-04-04T07:56:05.139Z,7.56
2019-04-04T07:57:05.104Z,7.56
2019-04-04T07:58:05.280Z,7.56
2019-04-04T07:59:05.520Z,7.56
2019-04-04T08:00:07.381Z,7.62
2019-04-04T08:01:05.032Z,7.62
2019-04-04T08:02:07.188Z,7.62
2019-04-04T08:03:05.389Z,7.62
2019-04-04T08:04:07.187Z,7.62
2019-04-04T08:05:05.525Z,7.62
2019-04-04T08:06:07.336Z,7.62
2019-04-04T08:07:07.325Z,7.62
2019-04-04T08:08:05.535Z,7.62
2019-04-04T08:09:05.283Z,7.62
2019-04-04T08:10:05.374Z,7.62
2019-04-04T08:11:05.437Z,7.62
2019-04-04T08:12:05.448Z,7.88
2019-04-04T08:13:07.341Z,8.00
2019-04-04T08:14:05.373Z,8.00
2019-04-04T08:15:05.444Z,8.00
2019-04-04T08:16:05.524Z,8.06
2019-04-04T08:17:07.236Z,8.00
2019-04-04T08:18:05.391Z,8.00
2019-04-04T08:19:05.424Z,8.00
2019-04-04T08:20:07.371Z,8.00
2019-04-04T08:21:05.766Z,8.00
2019-04-04T08:22:05.536Z,7.94
2019-04-04T08:23:05.228Z,8.00
2019-04-04T08:24:05.200Z,8.00
2019-04-04T08:25:05.525Z,8.00
2019-04-04T08:26:05.515Z,8.00
2019-04-04T08:27:07.221Z,8.06
2019-04-04T08:28:05.103Z,8.06
2019-04-04T08:29:05.193Z,8.12
2019-04-04T08:30:05.341Z,8.31
2019-04-04T08:31:04.959Z,8.50
2019-04-04T08:32:05.272Z,8.50
2019-04-04T08:33:07.368Z,8.50
2019-04-04T08:34:05.287Z,8.50
2019-04-04T08:35:05.366Z,8.50
2019-04-04T08:36:06.443Z,8.44
2019-04-04T08:37:05.437Z,8.38
2019-04-04T08:38:05.530Z,8.38
2019-04-04T08:39:05.597Z,8.38
2019-04-04T08:40:05.213Z,8.38
2019-04-04T08:41:05.284Z,8.44
2019-04-04T08:42:05.118Z,8.50
2019-04-04T08:43:05.361Z,8.50
2019-04-04T08:44:07.372Z,8.56
2019-04-04T08:45:05.033Z,8.62
2019-04-04T08:46:05.048Z,8.69
2019-04-04T08:47:07.182Z,8.69
2019-04-04T08:48:07.242Z,8.75
2019-04-04T08:49:05.342Z,8.75
2019-04-04T08:50:07.238Z,8.75
2019-04-04T08:51:05.217Z,8.75
2019-04-04T08:52:16.020Z,8.81
2019-04-04T08:53:07.136Z,8.88
2019-04-04T08:54:07.377Z,8.88
2019-04-04T08:55:05.522Z,8.88
2019-04-04T08:56:07.238Z,8.94
2019-04-04T08:57:05.278Z,8.94
2019-04-04T08:58:05.273Z,9.00
2019-04-04T08:59:07.139Z,9.00
2019-04-04T09:00:05.297Z,9.06
2019-04-04T09:01:07.222Z,9.06
2019-04-04T09:02:07.401Z,9.12
2019-04-04T09:03:07.383Z,9.06
2019-04-04T09:04:07.127Z,9.12
2019-04-04T09:05:11.563Z,9.19
2019-04-04T09:06:07.370Z,9.25
2019-04-04T09:07:07.382Z,9.31
2019-04-04T09:08:07.372Z,9.38
2019-04-04T09:09:05.533Z,9.44
2019-04-04T09:10:07.243Z,9.56
2019-04-04T09:11:07.218Z,9.62
2019-04-04T09:12:05.282Z,9.81
2019-04-04T09:13:05.352Z,10.12
2019-04-04T09:14:05.389Z,10.31
2019-04-04T09:15:07.387Z,10.31
2019-04-04T09:16:05.450Z,10.31
2019-04-04T09:17:07.244Z,10.31
2019-04-04T09:18:07.203Z,10.31
2019-04-04T09:19:05.533Z,10.38
2019-04-04T09:20:05.587Z,10.50
2019-04-04T09:21:07.178Z,10.56
2019-04-04T09:22:05.108Z,10.69
2019-04-04T09:23:07.389Z,10.75
2019-04-04T09:24:07.405Z,10.75
2019-04-04T09:25:10.238Z,10.81
2019-04-04T09:26:06.002Z,10.88
2019-04-04T09:27:05.603Z,10.88
2019-04-04T09:28:05.380Z,10.88
2019-04-04T09:29:05.367Z,10.94
2019-04-04T09:30:05.451Z,10.94
2019-04-04T09:31:05.609Z,10.94
2019-04-04T09:32:05.369Z,11.00
2019-04-04T09:33:07.271Z,11.06
2019-04-04T09:34:05.304Z,11.06
2019-04-04T09:35:05.281Z,11.12
2019-04-04T09:36:05.355Z,11.12
2019-04-04T09:37:08.540Z,11.12
2019-04-04T09:38:05.033Z,11.19
2019-04-04T09:39:05.274Z,11.19
2019-04-04T09:40:05.288Z,11.25
2019-04-04T09:41:07.229Z,11.25
2019-04-04T09:42:05.272Z,11.31
2019-04-04T09:43:05.521Z,11.31
2019-04-04T09:44:07.457Z,11.38
2019-04-04T09:45:05.601Z,11.38
2019-04-04T09:46:05.611Z,11.38
2019-04-04T09:47:07.199Z,11.38
2019-04-04T09:48:05.599Z,11.38
2019-04-04T09:49:05.206Z,11.38
2019-04-04T09:50:05.354Z,11.38
2019-04-04T09:51:05.597Z,11.38
2019-04-04T09:52:05.529Z,11.38
2019-04-04T09:53:07.187Z,11.38
2019-04-04T09:54:05.453Z,11.44
2019-04-04T09:55:07.255Z,11.44
2019-04-04T09:56:05.367Z,11.44
2019-04-04T09:57:07.191Z,11.44
2019-04-04T09:58:05.105Z,11.50
2019-04-04T09:59:05.438Z,11.56
2019-04-04T10:00:07.200Z,11.81
2019-04-04T10:01:06.630Z,12.00
2019-04-04T10:02:07.205Z,12.12
2019-04-04T10:03:05.665Z,12.31
2019-04-04T10:04:07.303Z,12.31
2019-04-04T10:05:06.058Z,12.31
2019-04-04T10:06:05.597Z,12.25
2019-04-04T10:07:05.603Z,12.25
2019-04-04T10:08:05.124Z,12.19
2019-04-04T10:09:14.936Z,12.12
2019-04-04T10:10:05.443Z,12.12
2019-04-04T10:11:07.286Z,12.06
2019-04-04T10:12:07.487Z,12.06
2019-04-04T10:13:05.203Z,12.06
2019-04-04T10:14:05.521Z,12.06
2019-04-04T10:15:07.268Z,12.00
2019-04-04T10:16:05.344Z,12.06
2019-04-04T10:17:07.451Z,12.06
2019-04-04T10:18:05.439Z,12.06
2019-04-04T10:19:05.528Z,12.12
2019-04-04T10:20:07.536Z,12.12
2019-04-04T10:21:11.463Z,12.19
2019-04-04T10:22:07.473Z,12.12
2019-04-04T10:23:05.280Z,12.12
2019-04-04T10:24:05.438Z,12.12
2019-04-04T10:25:05.043Z,12.12
2019-04-04T10:26:04.947Z,12.06
2019-04-04T10:27:05.061Z,12.06
2019-04-04T10:28:05.187Z,12.12
2019-04-04T10:29:05.053Z,12.12
2019-04-04T10:30:05.046Z,12.19
2019-04-04T10:31:05.679Z,12.19
2019-04-04T10:32:05.370Z,12.19
2019-04-04T10:33:05.346Z,12.19
2019-04-04T10:34:05.586Z,12.19
2019-04-04T10:35:05.219Z,12.25
2019-04-04T10:36:05.116Z,12.31
2019-04-04T10:37:05.690Z,12.50
2019-04-04T10:38:05.370Z,12.75
2019-04-04T10:39:05.531Z,12.88
2019-04-04T10:40:05.607Z,12.88
2019-04-04T10:41:05.313Z,12.88
2019-04-04T10:42:05.198Z,12.88
2019-04-04T10:43:05.215Z,12.88
2019-04-04T10:44:07.269Z,12.81
2019-04-04T10:45:05.542Z,12.81
2019-04-04T10:46:05.440Z,12.81
2019-04-04T10:47:05.434Z,12.81
2019-04-04T10:48:05.577Z,12.81
2019-04-04T10:49:08.047Z,12.94
2019-04-04T10:50:07.245Z,12.94
2019-04-04T10:51:05.375Z,12.94
2019-04-04T10:52:05.359Z,12.94
2019-04-04T10:53:05.368Z,12.94
2019-04-04T10:54:05.537Z,12.94
2019-04-04T10:55:05.346Z,13.00
2019-04-04T10:56:05.613Z,13.00
2019-04-04T10:57:07.254Z,13.06
2019-04-04T10:58:05.369Z,13.06
2019-04-04T10:59:05.663Z,13.12
2019-04-04T11:00:05.289Z,13.19
2019-04-04T11:01:05.382Z,13.25
2019-04-04T11:02:05.359Z,13.31
2019-04-04T11:03:07.288Z,13.31
2019-04-04T11:04:05.288Z,13.38
2019-04-04T11:05:05.278Z,13.44
2019-04-04T11:06:05.451Z,13.44
2019-04-04T11:07:05.041Z,13.44
2019-04-04T11:08:07.259Z,13.50
2019-04-04T11:09:05.536Z,13.50
2019-04-04T11:10:05.598Z,13.56
2019-04-04T11:11:05.664Z,13.56
2019-04-04T11:12:05.194Z,13.62
2019-04-04T11:13:05.285Z,13.69
2019-04-04T11:14:05.363Z,13.69
2019-04-04T11:15:05.452Z,13.75
2019-04-04T11:16:05.516Z,13.75
2019-04-04T11:17:07.502Z,13.75
2019-04-04T11:18:05.607Z,13.81
2019-04-04T11:19:05.688Z,13.81
2019-04-04T11:20:07.258Z,13.81
2019-04-04T11:21:05.206Z,13.81
2019-04-04T11:22:07.279Z,13.81
2019-04-04T11:23:05.367Z,13.88
2019-04-04T11:24:05.452Z,13.88
2019-04-04T11:25:05.616Z,13.88
2019-04-04T11:26:05.122Z,13.88
2019-04-04T11:27:05.038Z,13.88
2019-04-04T11:28:07.271Z,13.81
2019-04-04T11:29:05.359Z,13.81
2019-04-04T11:30:05.503Z,13.81
2019-04-04T11:31:04.961Z,13.88
2019-04-04T11:32:07.330Z,13.94
2019-04-04T11:33:05.278Z,13.94
2019-04-04T11:34:05.451Z,13.94
2019-04-04T11:35:05.521Z,14.00
2019-04-04T11:36:05.128Z,14.00
2019-04-04T11:37:05.450Z,14.00
2019-04-04T11:38:05.532Z,14.00
2019-04-04T11:39:05.751Z,14.06
2019-04-04T11:40:05.443Z,14.06
2019-04-04T11:41:07.345Z,14.06
2019-04-04T11:42:05.506Z,14.06
2019-04-04T11:43:05.531Z,14.06
2019-04-04T11:44:07.366Z,14.06
2019-04-04T11:45:05.528Z,14.12
2019-04-04T11:46:07.535Z,14.12
2019-04-04T11:47:05.447Z,14.19
2019-04-04T11:48:05.448Z,14.19
2019-04-04T11:49:05.692Z,14.25
2019-04-04T11:50:07.522Z,14.25
2019-04-04T11:51:07.388Z,14.38
2019-04-04T11:52:07.347Z,14.50
2019-04-04T11:53:05.526Z,14.62
2019-04-04T11:54:07.384Z,14.75
2019-04-04T11:55:05.448Z,14.75
2019-04-04T11:56:05.367Z,14.81
2019-04-04T11:57:05.597Z,14.81
2019-04-04T11:58:05.132Z,14.81
2019-04-04T11:59:07.855Z,14.75
2019-04-04T12:00:05.667Z,14.81
2019-04-04T12:01:05.141Z,14.81
2019-04-04T12:02:05.103Z,14.75
2019-04-04T12:03:05.212Z,14.75
2019-04-04T12:04:05.186Z,14.81
2019-04-04T12:05:05.207Z,14.81
2019-04-04T12:06:05.789Z,14.81
2019-04-04T12:07:05.365Z,14.88
2019-04-04T12:08:05.364Z,14.88
2019-04-04T12:09:05.757Z,14.81
2019-04-04T12:10:08.133Z,14.81
2019-04-04T12:11:05.606Z,14.75
2019-04-04T12:12:05.677Z,14.75
2019-04-04T12:13:05.775Z,14.69
2019-04-04T12:14:05.200Z,14.69
2019-04-04T12:15:07.346Z,14.75
2019-04-04T12:16:05.362Z,14.75
2019-04-04T12:17:05.457Z,14.75
2019-04-04T12:18:07.333Z,14.81
2019-04-04T12:19:05.519Z,14.81
2019-04-04T12:20:07.554Z,14.81
2019-04-04T12:21:05.533Z,14.81
2019-04-04T12:22:05.502Z,14.81
2019-04-04T12:23:05.044Z,14.88
2019-04-04T12:24:07.409Z,14.88
2019-04-04T12:25:05.462Z,14.88
2019-04-04T12:26:05.438Z,14.94
2019-04-04T12:27:05.535Z,15.00
2019-04-04T12:28:05.514Z,15.06
2019-04-04T12:29:07.400Z,15.19
2019-04-04T12:30:05.534Z,15.12
2019-04-04T12:31:05.518Z,15.19
2019-04-04T12:32:05.686Z,15.19
2019-04-04T12:33:07.417Z,15.25
2019-04-04T12:34:05.349Z,15.19
2019-04-04T12:35:07.422Z,15.25
2019-04-04T12:36:05.752Z,15.25
2019-04-04T12:37:05.215Z,15.19
2019-04-04T12:38:05.131Z,15.25
2019-04-04T12:39:05.211Z,15.25
2019-04-04T12:40:05.355Z,15.25
2019-04-04T12:41:05.440Z,15.25
2019-04-04T12:42:05.123Z,15.31
2019-04-04T12:43:05.119Z,15.25
2019-04-04T12:44:05.527Z,15.25
2019-04-04T12:45:05.378Z,15.25
2019-04-04T12:46:05.600Z,15.25
2019-04-04T12:47:05.600Z,15.25
2019-04-04T12:48:09.123Z,15.25
2019-04-04T12:49:05.291Z,15.25
2019-04-04T12:50:05.300Z,15.25
2019-04-04T12:51:05.268Z,15.25
2019-04-04T12:52:05.424Z,15.31
2019-04-04T12:53:07.458Z,15.25
2019-04-04T12:54:05.525Z,15.31
2019-04-04T12:55:05.688Z,15.31
2019-04-04T12:56:05.221Z,15.31
2019-04-04T12:57:05.224Z,15.25
2019-04-04T12:58:05.112Z,15.25
2019-04-04T12:59:05.286Z,15.38
2019-04-04T13:00:07.409Z,15.56
2019-04-04T13:01:05.504Z,15.56
2019-04-04T13:02:07.335Z,15.69
2019-04-04T13:03:05.437Z,15.81
2019-04-04T13:04:04.964Z,16.00
2019-04-04T13:05:05.253Z,16.06
2019-04-04T13:06:07.452Z,16.19
2019-04-04T13:07:07.338Z,16.12
2019-04-04T13:08:05.435Z,16.06
2019-04-04T13:09:05.596Z,15.94
2019-04-04T13:10:11.577Z,15.94
2019-04-04T13:11:05.501Z,15.88